Time;durP1;ratioP1;P1;durP2;ratioP2;P2;SDS_P1;SDS_P2;PMS_P1;PMS_P2;Temp;Humidity;BMP_temperature;BMP_pressure;BME280_temperature;BME280_humidity;BME280_pressure;Samples;Min_cycle;Max_cycle;Signal;HPM_P1;HPM_P2
2022/08/16 00:00:59;;;;;;;7.75;4.10;;;15.30;99.90;;;;;;5027162;28;20079;-61
2022/08/16 00:03:25;;;;;;;9.98;4.88;;;15.20;99.90;;;;;;5027324;28;20036;-61
2022/08/16 00:05:51;;;;;;;7.82;5.25;;;15.20;99.90;;;;;;5025882;28;20022;-61
2022/08/16 00:08:18;;;;;;;8.35;5.13;;;15.10;99.90;;;;;;5033530;28;20040;-61
2022/08/16 00:10:45;;;;;;;9.80;5.03;;;15.00;99.90;;;;;;5025157;28;20029;-61
2022/08/16 00:13:10;;;;;;;9.38;5.18;;;15.00;99.90;;;;;;5028462;28;20029;-61
2022/08/16 00:15:43;;;;;;;7.70;5.10;;;15.10;99.90;;;;;;5030822;28;20033;-61
2022/08/16 00:18:10;;;;;;;9.85;5.80;;;15.10;99.90;;;;;;5029831;28;20042;-60
2022/08/16 00:20:39;;;;;;;9.38;4.32;;;15.10;99.90;;;;;;5029443;28;20654;-61
2022/08/16 00:23:05;;;;;;;11.90;5.63;;;15.10;99.90;;;;;;5028904;28;20035;-61
2022/08/16 00:25:31;;;;;;;9.60;5.40;;;15.20;99.90;;;;;;5030406;28;20037;-61
2022/08/16 00:27:57;;;;;;;8.82;4.90;;;15.10;99.90;;;;;;5029571;28;20029;-61
2022/08/16 00:30:23;;;;;;;7.43;4.95;;;15.10;99.90;;;;;;5032925;28;20075;-61
2022/08/16 00:32:56;;;;;;;8.88;5.38;;;15.00;99.90;;;;;;5030440;28;20640;-61
2022/08/16 00:35:26;;;;;;;7.75;4.72;;;14.90;99.90;;;;;;5027470;28;20498;-61
2022/08/16 00:37:51;;;;;;;10.05;5.32;;;15.00;99.90;;;;;;5029012;28;20021;-61
2022/08/16 00:40:25;;;;;;;10.00;4.97;;;14.90;99.90;;;;;;5032259;28;20369;-60
2022/08/16 00:42:51;;;;;;;5.43;3.63;;;14.80;99.90;;;;;;5024992;28;20112;-60
2022/08/16 00:45:25;;;;;;;6.57;3.80;;;14.70;99.90;;;;;;5032356;28;20037;-61
2022/08/16 00:47:52;;;;;;;6.43;4.13;;;14.70;99.90;;;;;;5028291;28;20048;-61
2022/08/16 00:50:24;;;;;;;9.73;4.53;;;14.70;99.90;;;;;;5027323;28;20033;-61
2022/08/16 00:52:50;;;;;;;9.85;4.05;;;14.70;99.90;;;;;;5028608;28;20235;-61
2022/08/16 00:55:16;;;;;;;6.50;4.15;;;14.70;99.90;;;;;;5030741;28;20570;-61
2022/08/16 00:57:42;;;;;;;6.75;4.20;;;14.80;99.90;;;;;;5033342;28;20033;-61
2022/08/16 01:00:08;;;;;;;9.25;4.15;;;14.70;99.90;;;;;;5033206;28;20061;-61
2022/08/16 01:02:34;;;;;;;7.47;4.10;;;14.70;99.90;;;;;;5030915;28;20037;-61
2022/08/16 01:05:00;;;;;;;6.82;4.13;;;14.70;99.90;;;;;;5034568;28;20037;-61
2022/08/16 01:07:27;;;;;;;6.60;4.05;;;14.70;99.90;;;;;;5033738;28;20052;-61
2022/08/16 01:09:53;;;;;;;10.57;4.25;;;14.70;99.90;;;;;;5027699;28;20029;-61
2022/08/16 01:12:20;;;;;;;8.15;4.20;;;14.80;99.90;;;;;;5029959;28;20042;-61
2022/08/16 01:14:53;;;;;;;7.80;4.00;;;14.80;99.90;;;;;;5029849;28;20029;-61
2022/08/16 01:17:19;;;;;;;7.68;4.57;;;14.80;99.90;;;;;;5028287;28;20490;-61
2022/08/16 01:19:50;;;;;;;7.43;4.45;;;14.80;99.90;;;;;;5029275;28;20044;-61
2022/08/16 01:22:35;;;;;;;11.02;4.40;;;14.80;99.90;;;;;;5035410;28;20032;-61
2022/08/16 01:25:06;;;;;;;9.15;4.75;;;14.70;99.90;;;;;;5028431;28;20102;-61
2022/08/16 01:27:45;;;;;;;8.68;5.03;;;14.60;99.90;;;;;;5029843;28;20036;-61
2022/08/16 01:30:18;;;;;;;10.07;4.18;;;14.40;99.90;;;;;;5028770;28;20068;-61
2022/08/16 01:32:44;;;;;;;9.70;4.57;;;14.20;99.90;;;;;;5028150;28;20067;-61
2022/08/16 01:35:22;;;;;;;6.32;4.00;;;14.20;99.90;;;;;;5029985;28;20108;-61
2022/08/16 01:37:53;;;;;;;7.32;4.30;;;14.30;99.90;;;;;;5028875;28;20029;-61
2022/08/16 01:40:22;;;;;;;7.22;4.53;;;14.30;99.90;;;;;;5028597;28;20102;-61
2022/08/16 01:42:48;;;;;;;9.23;4.88;;;14.30;99.90;;;;;;5027891;28;20045;-61
2022/08/16 01:45:17;;;;;;;14.07;4.82;;;14.30;99.90;;;;;;5025237;28;20057;-60
2022/08/16 01:47:44;;;;;;;7.72;4.32;;;14.40;99.90;;;;;;5027377;28;20417;-61
2022/08/16 01:50:11;;;;;;;7.97;4.65;;;14.30;99.90;;;;;;5030039;28;20116;-61
2022/08/16 01:52:38;;;;;;;7.50;4.57;;;14.30;99.90;;;;;;5027131;28;20034;-61
2022/08/16 01:55:05;;;;;;;8.50;4.50;;;14.40;99.90;;;;;;5028174;28;20388;-61
2022/08/16 01:57:31;;;;;;;6.28;3.90;;;14.40;99.90;;;;;;5029699;28;20373;-62
2022/08/16 01:59:57;;;;;;;6.18;3.72;;;14.30;99.90;;;;;;5027687;28;20037;-61
2022/08/16 02:02:23;;;;;;;6.88;4.00;;;14.30;99.90;;;;;;5029234;28;20036;-61
2022/08/16 02:04:50;;;;;;;7.18;4.35;;;14.20;99.90;;;;;;5026536;28;20076;-61
2022/08/16 02:07:17;;;;;;;8.43;4.03;;;14.20;99.90;;;;;;5028331;28;20029;-61
2022/08/16 02:09:44;;;;;;;6.60;3.90;;;14.20;99.90;;;;;;5024056;28;20044;-61
2022/08/16 02:12:10;;;;;;;8.00;4.85;;;14.20;99.90;;;;;;5028961;28;20029;-61
2022/08/16 02:14:37;;;;;;;7.25;4.05;;;14.10;99.90;;;;;;5027599;28;20036;-61
2022/08/16 02:17:06;;;;;;;8.13;4.05;;;14.10;99.90;;;;;;5027411;28;20095;-61
2022/08/16 02:19:34;;;;;;;10.25;4.13;;;14.00;99.90;;;;;;5026122;28;20060;-61
2022/08/16 02:22:01;;;;;;;7.47;4.28;;;13.90;99.90;;;;;;5025933;28;20072;-61
2022/08/16 02:24:27;;;;;;;8.85;4.20;;;13.90;99.90;;;;;;5023271;28;20499;-61
2022/08/16 02:26:53;;;;;;;7.93;4.25;;;13.90;99.90;;;;;;5024819;28;20021;-60
2022/08/16 02:29:19;;;;;;;6.18;3.80;;;13.80;99.90;;;;;;5038677;28;20041;-61
2022/08/16 02:31:47;;;;;;;9.95;3.95;;;13.70;99.90;;;;;;5025972;28;20025;-61
2022/08/16 02:34:13;;;;;;;6.93;4.30;;;13.70;99.90;;;;;;5028361;28;20032;-61
2022/08/16 02:36:40;;;;;;;6.72;4.10;;;13.80;99.90;;;;;;5032388;28;20486;-61
2022/08/16 02:39:08;;;;;;;9.55;4.40;;;13.80;99.90;;;;;;5028131;28;20056;-61
2022/08/16 02:41:35;;;;;;;7.93;4.30;;;13.90;99.90;;;;;;5030303;28;20086;-61
2022/08/16 02:44:02;;;;;;;7.28;4.47;;;13.90;99.90;;;;;;5018932;28;20587;-61
2022/08/16 02:46:28;;;;;;;6.90;4.25;;;13.90;99.90;;;;;;5021570;28;20079;-61
2022/08/16 02:48:53;;;;;;;6.47;4.18;;;13.80;99.90;;;;;;5039778;28;20064;-61
2022/08/16 02:51:19;;;;;;;9.93;3.65;;;13.80;99.90;;;;;;5029442;28;20050;-60
2022/08/16 02:53:47;;;;;;;8.43;4.05;;;13.70;99.90;;;;;;5036835;28;20021;-60
2022/08/16 02:56:15;;;;;;;7.25;4.25;;;13.80;99.90;;;;;;5027768;28;20383;-60
2022/08/16 02:58:41;;;;;;;10.63;4.53;;;13.70;99.90;;;;;;5027881;28;20056;-61
2022/08/16 03:01:08;;;;;;;7.13;4.57;;;13.70;99.90;;;;;;5034333;28;20029;-61
2022/08/16 03:03:35;;;;;;;11.07;4.57;;;13.70;99.90;;;;;;5028348;28;20053;-60
2022/08/16 03:06:01;;;;;;;6.75;4.05;;;13.70;99.90;;;;;;5027938;28;20025;-61
2022/08/16 03:08:26;;;;;;;7.20;4.07;;;13.70;99.90;;;;;;5027873;28;20033;-60
2022/08/16 03:10:52;;;;;;;7.78;4.00;;;13.70;99.90;;;;;;5027339;28;20036;-61
2022/08/16 03:13:19;;;;;;;7.57;4.40;;;13.70;99.90;;;;;;5028171;28;20029;-61
2022/08/16 03:15:46;;;;;;;6.72;4.15;;;13.50;99.90;;;;;;5026446;28;20026;-61
2022/08/16 03:18:12;;;;;;;9.98;4.50;;;13.60;99.90;;;;;;5028326;28;20049;-61
2022/08/16 03:20:38;;;;;;;8.27;4.60;;;13.60;99.90;;;;;;5028121;28;20387;-61
2022/08/16 03:23:05;;;;;;;8.10;4.35;;;13.70;99.90;;;;;;5027623;28;20033;-61
2022/08/16 03:25:32;;;;;;;7.65;4.80;;;13.70;99.90;;;;;;5025998;28;20038;-61
2022/08/16 03:27:58;;;;;;;8.57;4.65;;;13.60;99.90;;;;;;5026830;28;20104;-61
2022/08/16 03:30:26;;;;;;;9.98;5.00;;;13.60;99.90;;;;;;5027954;28;20133;-61
2022/08/16 03:32:52;;;;;;;8.68;4.88;;;13.70;99.90;;;;;;5041873;28;20029;-61
2022/08/16 03:35:25;;;;;;;8.15;5.07;;;13.70;99.90;;;;;;5027947;28;20395;-61
2022/08/16 03:37:57;;;;;;;9.52;5.07;;;13.70;99.90;;;;;;5026921;28;20069;-61
2022/08/16 03:40:23;;;;;;;7.25;4.65;;;13.70;99.90;;;;;;5026971;28;20025;-61
2022/08/16 03:42:49;;;;;;;9.63;5.53;;;13.60;99.90;;;;;;5026923;28;20128;-61
2022/08/16 03:45:15;;;;;;;9.73;4.90;;;13.60;99.90;;;;;;5026681;28;20120;-61
2022/08/16 03:47:41;;;;;;;10.85;5.32;;;13.60;99.90;;;;;;5026450;28;20038;-61
2022/08/16 03:50:07;;;;;;;8.07;4.50;;;13.60;99.90;;;;;;5027214;28;20032;-61
2022/08/16 03:52:34;;;;;;;7.88;4.47;;;13.50;99.90;;;;;;5029066;28;20574;-61
2022/08/16 03:55:02;;;;;;;10.88;4.28;;;13.50;99.90;;;;;;5029699;28;20119;-61
2022/08/16 03:57:29;;;;;;;6.97;4.13;;;13.40;99.90;;;;;;5031499;28;20038;-61
2022/08/16 03:59:55;;;;;;;7.85;4.13;;;13.40;99.90;;;;;;5030553;28;20036;-61
2022/08/16 04:02:21;;;;;;;10.70;4.05;;;13.30;99.90;;;;;;5031260;28;20120;-60
2022/08/16 04:04:47;;;;;;;7.25;4.65;;;13.30;99.90;;;;;;5029457;28;20039;-61
2022/08/16 04:07:14;;;;;;;8.38;4.53;;;13.30;99.90;;;;;;5030222;28;20040;-60
2022/08/16 04:09:41;;;;;;;9.43;4.20;;;13.40;99.90;;;;;;5030324;28;20104;-61
2022/08/16 04:12:09;;;;;;;8.88;4.85;;;13.50;99.90;;;;;;5028456;28;20038;-61
2022/08/16 04:14:35;;;;;;;6.57;4.20;;;13.60;99.90;;;;;;5026585;28;20037;-61
2022/08/16 04:17:02;;;;;;;6.07;3.90;;;13.60;99.90;;;;;;5029951;28;20037;-61
2022/08/16 04:19:28;;;;;;;5.75;3.38;;;13.60;99.90;;;;;;5032187;28;20400;-60
2022/08/16 04:21:54;;;;;;;7.57;4.55;;;13.50;99.90;;;;;;5031645;28;20056;-61
2022/08/16 04:24:20;;;;;;;7.63;4.68;;;13.40;99.90;;;;;;5030918;28;20116;-61
2022/08/16 04:26:46;;;;;;;6.88;4.45;;;13.30;99.90;;;;;;5031470;28;20025;-62
2022/08/16 04:29:12;;;;;;;8.50;4.15;;;13.30;99.90;;;;;;5030538;28;20036;-62
2022/08/16 04:31:38;;;;;;;10.18;3.75;;;13.30;99.90;;;;;;5031298;28;20061;-61
2022/08/16 04:34:04;;;;;;;6.20;3.70;;;13.30;99.90;;;;;;5029992;28;20049;-61
2022/08/16 04:36:29;;;;;;;7.25;3.92;;;13.30;99.90;;;;;;5031830;28;20057;-62
2022/08/16 04:38:55;;;;;;;6.60;4.25;;;13.30;99.90;;;;;;5030981;28;20152;-62
2022/08/16 04:41:21;;;;;;;7.45;4.47;;;13.20;99.90;;;;;;5030351;28;20047;-61
2022/08/16 04:43:47;;;;;;;9.38;4.40;;;13.20;99.90;;;;;;5031460;28;20083;-61
2022/08/16 04:46:14;;;;;;;11.18;4.97;;;13.20;99.90;;;;;;5029236;28;20045;-62
2022/08/16 04:48:40;;;;;;;13.07;7.25;;;13.20;99.90;;;;;;5029807;28;20037;-61
2022/08/16 04:51:07;;;;;;;11.52;6.50;;;13.20;99.90;;;;;;5029338;28;20025;-61
2022/08/16 04:53:32;;;;;;;10.60;6.28;;;13.30;99.90;;;;;;5029902;28;20029;-61
2022/08/16 04:55:59;;;;;;;13.88;6.88;;;13.40;99.90;;;;;;5029833;28;20049;-62
2022/08/16 04:58:25;;;;;;;12.38;6.22;;;13.50;99.90;;;;;;5030410;28;20053;-61
2022/08/16 05:00:52;;;;;;;13.18;6.68;;;13.60;99.90;;;;;;5029337;28;20469;-62
2022/08/16 05:03:17;;;;;;;11.73;7.25;;;13.60;99.90;;;;;;5030101;28;20079;-61
2022/08/16 05:05:44;;;;;;;12.30;6.35;;;13.80;99.90;;;;;;5028459;28;20037;-62
2022/08/16 05:08:10;;;;;;;10.48;6.18;;;13.90;99.90;;;;;;5029541;28;20035;-62
2022/08/16 05:10:36;;;;;;;9.35;5.00;;;14.00;99.90;;;;;;5029900;28;20112;-61
2022/08/16 05:13:05;;;;;;;7.70;4.75;;;13.90;99.90;;;;;;5026634;28;20053;-62
2022/08/16 05:15:32;;;;;;;8.13;4.68;;;13.90;99.90;;;;;;5030727;28;20112;-62
2022/08/16 05:17:58;;;;;;;11.60;4.78;;;13.80;99.90;;;;;;5026626;28;20052;-61
2022/08/16 05:20:23;;;;;;;5.63;3.78;;;13.80;99.90;;;;;;5031610;28;20108;-62
2022/08/16 05:22:49;;;;;;;7.70;4.35;;;13.80;99.90;;;;;;5030651;28;20029;-62
2022/08/16 05:25:16;;;;;;;10.23;4.85;;;13.90;99.90;;;;;;5029619;28;20079;-62
2022/08/16 05:27:42;;;;;;;7.57;4.53;;;13.90;99.90;;;;;;5030992;28;20121;-61
2022/08/16 05:30:11;;;;;;;7.80;4.90;;;14.00;99.90;;;;;;5030246;28;20483;-61
2022/08/16 05:32:38;;;;;;;14.50;5.45;;;14.20;99.90;;;;;;5030140;28;20040;-62
2022/08/16 05:35:06;;;;;;;11.23;4.72;;;14.30;99.90;;;;;;5030047;28;20037;-62
2022/08/16 05:37:33;;;;;;;13.25;5.28;;;14.50;99.90;;;;;;5030926;28;20037;-61
2022/08/16 05:39:59;;;;;;;7.57;4.80;;;14.60;99.90;;;;;;5030037;28;20056;-61
2022/08/16 05:42:25;;;;;;;10.30;6.20;;;14.80;99.90;;;;;;5030686;28;20460;-61
2022/08/16 05:44:50;;;;;;;9.00;5.75;;;14.90;99.90;;;;;;5029890;28;20045;-62
2022/08/16 05:47:16;;;;;;;10.70;5.85;;;14.80;99.90;;;;;;5028202;28;20089;-62
2022/08/16 05:49:42;;;;;;;9.63;5.43;;;14.70;99.90;;;;;;5030726;28;20527;-62
2022/08/16 05:52:09;;;;;;;10.07;6.00;;;14.90;99.90;;;;;;5045104;28;20037;-62
2022/08/16 05:54:35;;;;;;;9.40;5.53;;;15.00;99.90;;;;;;5030647;28;20034;-61
2022/08/16 05:57:01;;;;;;;9.30;5.75;;;15.00;99.90;;;;;;5029685;28;20036;-62
2022/08/16 05:59:26;;;;;;;9.00;5.40;;;15.10;99.90;;;;;;5030493;28;20037;-62
2022/08/16 06:01:52;;;;;;;12.23;6.28;;;15.20;99.90;;;;;;5028897;28;20028;-62
2022/08/16 06:04:20;;;;;;;13.98;5.93;;;15.20;99.90;;;;;;5030308;28;20070;-61
2022/08/16 06:06:46;;;;;;;12.70;5.50;;;15.30;99.90;;;;;;5028511;28;20545;-62
2022/08/16 06:09:14;;;;;;;10.38;5.35;;;15.30;99.90;;;;;;5029499;28;20064;-62
2022/08/16 06:11:40;;;;;;;10.02;6.18;;;15.40;99.90;;;;;;5029848;28;20055;-62
2022/08/16 06:14:06;;;;;;;13.25;6.03;;;15.50;99.90;;;;;;5029105;28;20482;-62
2022/08/16 06:16:32;;;;;;;12.32;5.93;;;15.70;99.90;;;;;;5028210;28;20036;-62
2022/08/16 06:18:58;;;;;;;9.85;6.03;;;16.00;99.90;;;;;;5026770;28;20103;-62
2022/08/16 06:21:24;;;;;;;9.57;6.05;;;16.30;99.90;;;;;;5027913;28;20514;-62
2022/08/16 06:23:50;;;;;;;8.10;5.57;;;16.60;99.90;;;;;;5026534;28;20120;-62
2022/08/16 06:26:15;;;;;;;9.32;6.13;;;16.90;99.90;;;;;;5048109;28;20144;-62
2022/08/16 06:28:41;;;;;;;9.73;5.50;;;17.30;99.90;;;;;;5029577;28;20495;-62
2022/08/16 06:31:10;;;;;;;11.68;5.90;;;17.60;99.90;;;;;;5029126;28;20361;-62
2022/08/16 06:33:35;;;;;;;8.32;5.60;;;17.90;99.90;;;;;;5029959;28;20030;-62
2022/08/16 06:36:01;;;;;;;11.18;5.93;;;18.20;99.90;;;;;;5028158;28;20455;-62
2022/08/16 06:38:27;;;;;;;8.75;6.18;;;18.40;99.90;;;;;;5029825;28;20037;-62
2022/08/16 06:40:53;;;;;;;10.98;6.57;;;18.70;99.90;;;;;;5029318;28;20048;-63
2022/08/16 06:43:19;;;;;;;8.95;6.13;;;18.80;99.90;;;;;;5029577;28;20033;-62
2022/08/16 06:45:46;;;;;;;12.13;7.10;;;18.90;99.90;;;;;;5029574;28;20084;-61
2022/08/16 06:48:12;;;;;;;13.50;6.03;;;19.00;99.90;;;;;;5028881;28;20105;-62
2022/08/16 06:50:37;;;;;;;11.38;6.75;;;19.10;99.90;;;;;;5027589;28;20140;-61
2022/08/16 06:53:03;;;;;;;11.60;6.95;;;19.10;99.90;;;;;;5028803;28;20033;-61
2022/08/16 06:55:30;;;;;;;10.70;5.97;;;19.00;99.90;;;;;;5028459;28;20030;-61
2022/08/16 06:57:55;;;;;;;9.88;6.57;;;19.10;99.90;;;;;;5028864;28;20025;-62
2022/08/16 07:00:23;;;;;;;14.82;6.78;;;19.20;99.90;;;;;;5029435;28;20033;-62
2022/08/16 07:02:49;;;;;;;13.13;6.78;;;19.40;99.90;;;;;;5029457;28;20053;-62
2022/08/16 07:05:16;;;;;;;10.63;6.57;;;19.60;99.90;;;;;;5027780;28;20269;-62
2022/08/16 07:07:47;;;;;;;15.07;7.43;;;19.80;99.90;;;;;;5029491;28;20065;-62
2022/08/16 07:10:15;;;;;;;10.75;7.05;;;20.00;99.90;;;;;;5028716;28;20041;-62
2022/08/16 07:12:41;;;;;;;10.90;6.75;;;20.10;99.90;;;;;;5029456;28;20033;-62
2022/08/16 07:15:08;;;;;;;10.38;7.35;;;20.30;99.90;;;;;;5028624;28;20031;-62
2022/08/16 07:17:35;;;;;;;12.68;7.43;;;20.40;99.90;;;;;;5029430;28;20057;-62
2022/08/16 07:20:03;;;;;;;13.23;7.10;;;20.40;99.90;;;;;;5026999;28;20041;-62
2022/08/16 07:22:29;;;;;;;10.85;6.50;;;20.50;99.90;;;;;;5029343;28;20112;-62
2022/08/16 07:24:55;;;;;;;14.07;7.45;;;20.80;99.90;;;;;;5029016;28;20764;-62
2022/08/16 07:27:21;;;;;;;12.15;7.18;;;21.00;99.90;;;;;;5030949;28;20483;-62
2022/08/16 07:29:47;;;;;;;15.77;7.80;;;21.20;99.90;;;;;;5033416;28;20037;-62
2022/08/16 07:32:12;;;;;;;10.98;7.43;;;21.20;99.90;;;;;;5032628;28;20033;-62
2022/08/16 07:34:38;;;;;;;10.48;6.85;;;21.40;99.90;;;;;;5031598;28;20084;-62
2022/08/16 07:37:07;;;;;;;12.52;7.13;;;21.50;99.90;;;;;;5031877;28;20029;-60
2022/08/16 07:39:33;;;;;;;12.50;8.43;;;21.50;99.90;;;;;;5032716;28;20419;-60
2022/08/16 07:41:58;;;;;;;14.55;7.38;;;21.60;99.90;;;;;;5032263;28;20095;-60
2022/08/16 07:44:24;;;;;;;11.45;7.13;;;21.70;99.90;;;;;;5032934;28;20025;-60
2022/08/16 07:46:50;;;;;;;14.88;7.45;;;21.90;99.90;;;;;;5032570;28;20058;-60
2022/08/16 07:49:15;;;;;;;13.35;8.20;;;21.80;99.90;;;;;;5032051;28;20210;-60
2022/08/16 07:51:41;;;;;;;13.35;7.75;;;21.90;99.90;;;;;;5032402;28;20403;-60
2022/08/16 07:54:09;;;;;;;15.15;7.70;;;21.90;99.90;;;;;;5047342;28;20032;-60
2022/08/16 07:56:35;;;;;;;12.55;7.28;;;22.00;99.90;;;;;;5048238;28;20030;-63
2022/08/16 07:59:00;;;;;;;13.30;7.18;;;22.10;99.90;;;;;;5031877;28;20041;-61
2022/08/16 08:01:28;;;;;;;18.58;7.68;;;22.10;99.90;;;;;;5032767;28;20034;-61
2022/08/16 08:03:55;;;;;;;13.25;7.88;;;22.30;99.90;;;;;;5032701;28;20061;-61
2022/08/16 08:06:22;;;;;;;13.43;6.93;;;22.30;99.90;;;;;;5031320;28;20038;-61
2022/08/16 08:08:48;;;;;;;12.57;7.53;;;22.50;99.90;;;;;;5032709;28;20438;-60
2022/08/16 08:11:15;;;;;;;10.50;7.43;;;22.70;99.90;;;;;;5031870;28;20037;-61
2022/08/16 08:13:41;;;;;;;13.13;8.07;;;22.80;99.90;;;;;;5032724;28;20525;-60
2022/08/16 08:16:08;;;;;;;12.35;7.20;;;22.80;99.90;;;;;;5031882;28;20029;-60
2022/08/16 08:18:35;;;;;;;10.05;7.90;;;22.70;99.90;;;;;;5032372;28;20056;-61
2022/08/16 08:21:00;;;;;;;15.43;7.75;;;22.80;99.90;;;;;;5031002;28;20052;-62
2022/08/16 08:23:27;;;;;;;13.70;8.20;;;22.90;99.90;;;;;;5032520;28;20464;-61
2022/08/16 08:25:52;;;;;;;16.33;7.97;;;23.00;99.90;;;;;;5032068;28;20426;-61
2022/08/16 08:28:18;;;;;;;12.05;7.30;;;22.80;99.90;;;;;;5031587;28;20022;-60
2022/08/16 08:30:45;;;;;;;14.50;7.95;;;22.80;99.90;;;;;;5032238;28;20033;-61
2022/08/16 08:33:11;;;;;;;10.88;7.78;;;23.00;99.90;;;;;;5031437;28;20037;-61
2022/08/16 08:35:37;;;;;;;12.07;7.93;;;23.20;99.90;;;;;;5046670;28;20034;-61
2022/08/16 08:38:06;;;;;;;14.18;8.30;;;23.40;99.90;;;;;;5030652;28;20037;-61
2022/08/16 08:40:32;;;;;;;13.68;8.13;;;23.30;99.90;;;;;;5031835;28;20037;-60
2022/08/16 08:42:59;;;;;;;10.68;7.63;;;23.20;99.90;;;;;;5032026;28;20517;-61
2022/08/16 08:45:25;;;;;;;12.30;7.30;;;23.30;99.90;;;;;;5031204;28;20049;-61
2022/08/16 08:47:51;;;;;;;13.35;8.30;;;23.50;99.90;;;;;;5032025;28;20029;-61
2022/08/16 08:50:17;;;;;;;16.88;8.13;;;23.40;99.90;;;;;;5030163;28;20468;-61
2022/08/16 08:52:44;;;;;;;13.57;8.13;;;23.40;99.90;;;;;;5031822;28;20029;-60
2022/08/16 08:55:13;;;;;;;10.18;7.32;;;23.50;99.90;;;;;;5031064;28;20032;-61
2022/08/16 08:57:46;;;;;;;13.00;7.38;;;23.50;99.90;;;;;;5031493;28;20030;-61
2022/08/16 09:00:14;;;;;;;15.02;8.13;;;23.70;99.90;;;;;;5030901;28;20041;-61
2022/08/16 09:02:42;;;;;;;14.55;8.30;;;23.80;99.90;;;;;;5031923;28;20036;-61
2022/08/16 09:05:09;;;;;;;13.55;7.03;;;23.70;99.30;;;;;;5029878;28;20104;-62
2022/08/16 09:07:36;;;;;;;11.80;7.63;;;23.70;99.10;;;;;;5030448;28;20041;-61
2022/08/16 09:10:03;;;;;;;16.95;7.28;;;24.00;99.90;;;;;;5031075;28;20048;-63
2022/08/16 09:12:29;;;;;;;19.98;7.28;;;24.40;98.90;;;;;;5031580;28;20454;-62
2022/08/16 09:14:55;;;;;;;17.50;7.35;;;24.40;98.00;;;;;;5031383;28;20065;-61
2022/08/16 09:17:20;;;;;;;13.30;7.03;;;24.80;98.20;;;;;;5046026;28;20033;-61
2022/08/16 09:19:46;;;;;;;15.20;7.60;;;25.20;97.00;;;;;;5030573;28;20052;-61
2022/08/16 09:22:12;;;;;;;11.20;7.10;;;25.10;95.40;;;;;;5030478;28;20474;-61
2022/08/16 09:24:37;;;;;;;13.15;7.32;;;24.70;95.50;;;;;;5031346;28;20029;-62
2022/08/16 09:27:04;;;;;;;9.20;6.57;;;24.60;95.40;;;;;;5030616;28;20029;-63
2022/08/16 09:29:30;;;;;;;10.43;7.03;;;24.80;94.50;;;;;;5031187;28;20041;-62
2022/08/16 09:31:57;;;;;;;14.23;6.60;;;25.10;94.40;;;;;;5031153;28;20026;-62
2022/08/16 09:34:23;;;;;;;12.00;6.82;;;25.40;94.90;;;;;;5029464;28;20029;-62
2022/08/16 09:36:49;;;;;;;11.38;7.07;;;25.60;95.30;;;;;;5029995;28;20037;-62
2022/08/16 09:39:16;;;;;;;10.35;6.90;;;25.50;93.20;;;;;;5029881;28;20072;-62
2022/08/16 09:41:43;;;;;;;9.93;6.50;;;25.40;93.00;;;;;;5030922;28;20022;-61
2022/08/16 09:44:09;;;;;;;11.98;7.43;;;25.50;93.30;;;;;;5030177;28;20029;-62
2022/08/16 09:46:34;;;;;;;11.85;6.32;;;25.70;92.10;;;;;;5030770;28;20106;-62
2022/08/16 09:49:00;;;;;;;11.60;6.40;;;25.70;91.80;;;;;;5030535;28;20037;-62
2022/08/16 09:51:26;;;;;;;11.95;6.40;;;25.80;92.60;;;;;;5028191;28;20100;-62
2022/08/16 09:53:54;;;;;;;11.23;6.55;;;26.10;91.40;;;;;;5030632;28;20040;-63
2022/08/16 09:56:29;;;;;;;17.05;6.45;;;26.20;92.20;;;;;;5029710;28;20051;-62
2022/08/16 09:58:57;;;;;;;9.45;6.50;;;26.20;90.20;;;;;;5030662;28;20468;-62
2022/08/16 10:01:23;;;;;;;14.63;7.03;;;25.80;90.60;;;;;;5029768;28;20124;-62
2022/08/16 10:03:50;;;;;;;11.82;6.55;;;25.50;90.90;;;;;;5030426;28;20029;-62
2022/08/16 10:06:17;;;;;;;8.20;6.20;;;25.40;91.10;;;;;;5027597;28;20033;-62
2022/08/16 10:08:44;;;;;;;11.20;6.00;;;25.60;90.70;;;;;;5029625;28;20029;-62
2022/08/16 10:13:54;;;;;;;12.18;6.10;;;26.50;89.90;;;;;;5030187;28;20216;-62
2022/08/16 10:16:20;;;;;;;10.80;6.40;;;26.60;87.40;;;;;;5029159;28;20131;-62
2022/08/16 10:18:46;;;;;;;9.48;6.20;;;26.50;86.40;;;;;;5029271;28;20094;-62
2022/08/16 10:21:14;;;;;;;10.30;5.93;;;26.30;88.50;;;;;;5028439;28;20479;-62
2022/08/16 10:23:40;;;;;;;12.38;6.35;;;26.70;87.20;;;;;;5030075;28;20460;-62
2022/08/16 10:26:06;;;;;;;10.55;6.32;;;27.00;85.20;;;;;;5029730;28;20040;-63
2022/08/16 10:28:32;;;;;;;11.85;6.78;;;26.90;85.10;;;;;;5029814;28;20051;-61
2022/08/16 10:31:02;;;;;;;8.38;6.07;;;26.30;85.40;;;;;;5029933;28;20032;-62
2022/08/16 10:33:28;;;;;;;12.70;6.78;;;25.90;84.50;;;;;;5027858;28;20138;-62
2022/08/16 10:35:54;;;;;;;11.13;6.88;;;25.60;87.30;;;;;;5029019;28;20053;-62
2022/08/16 10:38:20;;;;;;;8.38;6.22;;;25.10;88.00;;;;;;5029099;28;20464;-62
2022/08/16 10:40:46;;;;;;;8.25;5.97;;;24.90;90.10;;;;;;5029591;28;20032;-62
2022/08/16 10:43:13;;;;;;;8.10;5.93;;;25.20;89.60;;;;;;5029147;28;20034;-62
2022/08/16 10:45:39;;;;;;;10.85;6.35;;;25.60;88.50;;;;;;5029572;28;20454;-62
2022/08/16 10:48:09;;;;;;;8.15;6.00;;;26.30;83.10;;;;;;5029725;28;20108;-63
2022/08/16 10:50:36;;;;;;;;;;;26.80;85.10;;;;;;5029299;28;20132;-62
2022/08/16 10:53:05;;;;;;;25.10;5.20;;;27.50;80.00;;;;;;5029396;28;20329;-62
2022/08/16 10:55:35;;;;;;;10.87;5.53;;;27.90;80.30;;;;;;5028877;28;20460;-62
2022/08/16 10:58:06;;;;;;;;;;;27.80;78.10;;;;;;5030045;28;20264;-62
2022/08/16 11:00:33;;;;;;;13.70;6.00;;;27.70;77.30;;;;;;5029232;28;19939;-62
2022/08/16 11:03:02;;;;;;;10.55;5.90;;;27.90;76.90;;;;;;5029211;28;20112;-62
2022/08/16 11:05:30;;;;;;;9.15;6.10;;;28.10;75.20;;;;;;5027762;28;20100;-62
2022/08/16 11:07:56;;;;;;;10.48;6.00;;;27.80;76.20;;;;;;5028129;28;20052;-62
2022/08/16 11:10:29;;;;;;;12.55;5.80;;;27.50;75.40;;;;;;5026651;28;20032;-62
2022/08/16 11:12:55;;;;;;;8.63;6.20;;;27.20;76.40;;;;;;5028215;28;20076;-61
2022/08/16 11:15:21;;;;;;;14.27;6.03;;;27.40;76.40;;;;;;5028381;28;20041;-62
2022/08/16 11:17:49;;;;;;;7.40;5.95;;;27.50;75.30;;;;;;5029366;28;20033;-61
2022/08/16 11:20:16;;;;;;;9.48;5.90;;;27.50;74.70;;;;;;5027225;28;20051;-61
2022/08/16 11:22:43;;;;;;;9.48;5.80;;;27.40;73.50;;;;;;5029279;28;20390;-62
2022/08/16 11:25:10;;;;;;;16.50;6.07;;;27.50;74.00;;;;;;5028933;28;20049;-63
2022/08/16 11:27:36;;;;;;;8.07;5.18;;;27.80;73.10;;;;;;5028092;28;20061;-62
2022/08/16 11:30:04;;;;;;;7.68;5.15;;;28.00;69.10;;;;;;5029324;28;20490;-62
2022/08/16 11:32:30;;;;;;;6.22;5.20;;;28.00;71.10;;;;;;5028266;28;20049;-62
2022/08/16 11:34:55;;;;;;;9.35;5.53;;;27.80;70.20;;;;;;5029225;28;20056;-62
2022/08/16 11:37:22;;;;;;;9.07;5.22;;;27.40;70.10;;;;;;5028193;28;20044;-63
2022/08/16 11:39:47;;;;;;;8.95;5.35;;;27.60;70.30;;;;;;5028825;28;20053;-63
2022/08/16 11:42:14;;;;;;;8.45;5.28;;;27.80;68.90;;;;;;5027561;28;20037;-63
2022/08/16 11:44:39;;;;;;;9.35;5.30;;;27.60;71.20;;;;;;5028742;28;20530;-63
2022/08/16 11:47:05;;;;;;;10.98;5.40;;;27.20;70.00;;;;;;5029210;28;20124;-62
2022/08/16 11:49:31;;;;;;;8.73;5.10;;;27.40;68.60;;;;;;5028294;28;20094;-62
2022/08/16 11:51:56;;;;;;;5.80;5.13;;;27.50;68.20;;;;;;5028891;28;20029;-62
2022/08/16 11:54:22;;;;;;;6.00;4.78;;;27.50;68.90;;;;;;5028182;28;20045;-62
2022/08/16 11:56:52;;;;;;;9.75;5.30;;;27.70;68.70;;;;;;5027859;28;20518;-63
2022/08/16 11:59:18;;;;;;;8.80;5.57;;;28.30;66.80;;;;;;5027921;28;20046;-62
2022/08/16 12:01:44;;;;;;;9.02;5.13;;;28.40;65.50;;;;;;5029108;28;20029;-62
2022/08/16 12:04:11;;;;;;;6.68;4.90;;;28.60;65.10;;;;;;5028779;28;20030;-63
2022/08/16 12:06:37;;;;;;;7.82;5.03;;;28.70;65.70;;;;;;5028434;28;20025;-62
2022/08/16 12:09:04;;;;;;;5.30;4.65;;;28.20;61.90;;;;;;5027721;28;20026;-62
2022/08/16 12:11:30;;;;;;;10.38;5.70;;;27.80;66.10;;;;;;5026524;28;20026;-62
2022/08/16 12:13:56;;;;;;;8.45;5.00;;;28.10;65.70;;;;;;5029965;28;20040;-62
2022/08/16 12:16:22;;;;;;;8.65;4.85;;;28.40;64.90;;;;;;5031660;28;20029;-62
2022/08/16 12:18:48;;;;;;;10.88;4.75;;;28.50;63.50;;;;;;5032194;28;20522;-62
2022/08/16 12:21:15;;;;;;;6.03;4.80;;;28.70;62.40;;;;;;5031828;28;20025;-64
2022/08/16 12:23:41;;;;;;;10.43;5.00;;;28.40;62.20;;;;;;5032088;28;20868;-62
2022/08/16 12:26:07;;;;;;;8.40;4.88;;;27.90;64.30;;;;;;5031456;28;20033;-63
2022/08/16 12:28:33;;;;;;;7.63;5.10;;;27.90;65.60;;;;;;5031539;28;20291;-62
2022/08/16 12:30:59;;;;;;;8.30;4.93;;;28.10;63.30;;;;;;5032204;28;20104;-62
2022/08/16 12:33:25;;;;;;;6.63;5.03;;;28.30;64.40;;;;;;5031451;28;20034;-62
2022/08/16 12:35:50;;;;;;;8.45;5.35;;;28.60;65.00;;;;;;5032176;28;20061;-63
2022/08/16 12:38:16;;;;;;;9.98;5.50;;;28.20;62.20;;;;;;5046450;28;20034;-63
2022/08/16 12:40:45;;;;;;;14.95;5.65;;;27.90;64.70;;;;;;5031082;28;20033;-62
2022/08/16 12:43:12;;;;;;;7.45;5.20;;;28.20;66.50;;;;;;5032030;28;20081;-62